sensor_id;sensor_type;location;lat;lon;timestamp;temperature;humidity
60242;SHT30;46103;52.076;113.488;2023-08-20T00:00:56;14.03;69.54
60242;SHT30;46103;52.076;113.488;2023-08-20T00:04:00;14.14;69.53
60242;SHT30;46103;52.076;113.488;2023-08-20T00:07:04;14.17;69.47
60242;SHT30;46103;52.076;113.488;2023-08-20T00:10:08;14.26;69.28
60242;SHT30;46103;52.076;113.488;2023-08-20T00:13:13;14.20;69.59
60242;SHT30;46103;52.076;113.488;2023-08-20T00:16:16;14.23;69.26
60242;SHT30;46103;52.076;113.488;2023-08-20T00:19:21;14.16;69.70
60242;SHT30;46103;52.076;113.488;2023-08-20T00:22:25;14.23;69.74
60242;SHT30;46103;52.076;113.488;2023-08-20T00:25:30;14.27;69.86
60242;SHT30;46103;52.076;113.488;2023-08-20T00:28:34;14.45;69.48
60242;SHT30;46103;52.076;113.488;2023-08-20T00:31:40;14.61;69.15
60242;SHT30;46103;52.076;113.488;2023-08-20T00:34:43;14.72;68.73
60242;SHT30;46103;52.076;113.488;2023-08-20T00:37:48;14.85;68.43
60242;SHT30;46103;52.076;113.488;2023-08-20T00:40:52;14.91;68.15
60242;SHT30;46103;52.076;113.488;2023-08-20T00:43:56;15.12;67.78
60242;SHT30;46103;52.076;113.488;2023-08-20T00:47:02;15.44;66.98
60242;SHT30;46103;52.076;113.488;2023-08-20T00:50:09;15.51;66.40
60242;SHT30;46103;52.076;113.488;2023-08-20T00:53:15;15.85;66.03
60242;SHT30;46103;52.076;113.488;2023-08-20T00:56:19;15.99;65.45
60242;SHT30;46103;52.076;113.488;2023-08-20T00:59:24;16.02;66.03
60242;SHT30;46103;52.076;113.488;2023-08-20T01:02:28;16.15;62.54
60242;SHT30;46103;52.076;113.488;2023-08-20T01:05:39;16.19;60.77
60242;SHT30;46103;52.076;113.488;2023-08-20T01:09:15;16.33;60.19
60242;SHT30;46103;52.076;113.488;2023-08-20T01:12:25;16.39;60.76
60242;SHT30;46103;52.076;113.488;2023-08-20T01:15:31;16.47;60.61
60242;SHT30;46103;52.076;113.488;2023-08-20T01:18:37;16.66;60.03
60242;SHT30;46103;52.076;113.488;2023-08-20T01:25:04;16.89;59.15
60242;SHT30;46103;52.076;113.488;2023-08-20T01:28:30;17.00;58.87
60242;SHT30;46103;52.076;113.488;2023-08-20T01:31:34;17.18;58.14
60242;SHT30;46103;52.076;113.488;2023-08-20T01:34:38;17.43;58.00
60242;SHT30;46103;52.076;113.488;2023-08-20T01:37:42;17.63;57.18
60242;SHT30;46103;52.076;113.488;2023-08-20T01:40:45;17.65;57.00
60242;SHT30;46103;52.076;113.488;2023-08-20T01:43:49;17.76;56.58
60242;SHT30;46103;52.076;113.488;2023-08-20T01:46:52;17.94;56.00
60242;SHT30;46103;52.076;113.488;2023-08-20T01:49:56;18.00;55.74
60242;SHT30;46103;52.076;113.488;2023-08-20T01:52:59;18.00;55.87
60242;SHT30;46103;52.076;113.488;2023-08-20T01:56:13;18.01;55.72
60242;SHT30;46103;52.076;113.488;2023-08-20T01:59:34;18.08;54.99
60242;SHT30;46103;52.076;113.488;2023-08-20T02:02:39;18.32;54.50
60242;SHT30;46103;52.076;113.488;2023-08-20T02:05:43;18.28;53.50
60242;SHT30;46103;52.076;113.488;2023-08-20T02:08:46;18.42;52.72
60242;SHT30;46103;52.076;113.488;2023-08-20T02:11:51;18.42;53.16
60242;SHT30;46103;52.076;113.488;2023-08-20T02:14:54;18.51;52.94
60242;SHT30;46103;52.076;113.488;2023-08-20T02:17:59;18.55;52.61
60242;SHT30;46103;52.076;113.488;2023-08-20T02:21:04;18.48;52.43
60242;SHT30;46103;52.076;113.488;2023-08-20T02:24:07;18.45;51.99
60242;SHT30;46103;52.076;113.488;2023-08-20T02:27:10;18.39;52.39
60242;SHT30;46103;52.076;113.488;2023-08-20T02:30:13;18.79;52.15
60242;SHT30;46103;52.076;113.488;2023-08-20T02:33:16;18.83;51.90
60242;SHT30;46103;52.076;113.488;2023-08-20T02:36:19;18.67;51.47
60242;SHT30;46103;52.076;113.488;2023-08-20T02:39:22;18.56;52.18
60242;SHT30;46103;52.076;113.488;2023-08-20T02:42:27;18.53;53.15
60242;SHT30;46103;52.076;113.488;2023-08-20T02:45:30;18.57;52.17
60242;SHT30;46103;52.076;113.488;2023-08-20T02:48:34;18.64;52.09
60242;SHT30;46103;52.076;113.488;2023-08-20T02:51:37;18.64;52.04
60242;SHT30;46103;52.076;113.488;2023-08-20T02:54:40;18.72;51.64
60242;SHT30;46103;52.076;113.488;2023-08-20T02:57:44;18.83;51.72
60242;SHT30;46103;52.076;113.488;2023-08-20T03:00:47;18.86;52.10
60242;SHT30;46103;52.076;113.488;2023-08-20T03:03:50;19.17;51.75
60242;SHT30;46103;52.076;113.488;2023-08-20T03:06:54;19.07;51.97
60242;SHT30;46103;52.076;113.488;2023-08-20T03:09:57;19.28;51.65
60242;SHT30;46103;52.076;113.488;2023-08-20T03:13:01;19.49;51.59
60242;SHT30;46103;52.076;113.488;2023-08-20T03:16:05;19.48;51.10
60242;SHT30;46103;52.076;113.488;2023-08-20T03:19:09;19.44;50.76
60242;SHT30;46103;52.076;113.488;2023-08-20T03:22:13;19.42;50.68
60242;SHT30;46103;52.076;113.488;2023-08-20T03:25:16;19.31;51.57
60242;SHT30;46103;52.076;113.488;2023-08-20T03:28:21;19.35;51.38
60242;SHT30;46103;52.076;113.488;2023-08-20T03:31:25;19.27;52.23
60242;SHT30;46103;52.076;113.488;2023-08-20T03:34:30;19.19;51.65
60242;SHT30;46103;52.076;113.488;2023-08-20T03:37:35;19.10;51.40
60242;SHT30;46103;52.076;113.488;2023-08-20T03:40:41;19.28;51.48
60242;SHT30;46103;52.076;113.488;2023-08-20T03:43:46;19.42;51.23
60242;SHT30;46103;52.076;113.488;2023-08-20T03:46:52;19.63;50.41
60242;SHT30;46103;52.076;113.488;2023-08-20T03:50:00;19.54;51.23
60242;SHT30;46103;52.076;113.488;2023-08-20T03:53:05;19.52;50.93
60242;SHT30;46103;52.076;113.488;2023-08-20T03:56:09;19.19;51.83
60242;SHT30;46103;52.076;113.488;2023-08-20T03:59:13;19.36;51.29
60242;SHT30;46103;52.076;113.488;2023-08-20T04:02:18;19.31;51.13
60242;SHT30;46103;52.076;113.488;2023-08-20T04:05:22;19.19;50.51
60242;SHT30;46103;52.076;113.488;2023-08-20T04:08:27;19.22;50.49
60242;SHT30;46103;52.076;113.488;2023-08-20T04:11:32;19.29;49.13
60242;SHT30;46103;52.076;113.488;2023-08-20T04:14:38;19.46;49.58
60242;SHT30;46103;52.076;113.488;2023-08-20T04:17:44;19.54;49.55
60242;SHT30;46103;52.076;113.488;2023-08-20T04:20:53;19.67;49.21
60242;SHT30;46103;52.076;113.488;2023-08-20T04:24:00;19.79;49.31
60242;SHT30;46103;52.076;113.488;2023-08-20T04:27:04;19.76;49.29
60242;SHT30;46103;52.076;113.488;2023-08-20T04:30:12;19.62;49.90
60242;SHT30;46103;52.076;113.488;2023-08-20T04:33:17;19.58;50.03
60242;SHT30;46103;52.076;113.488;2023-08-20T04:36:23;19.84;50.23
60242;SHT30;46103;52.076;113.488;2023-08-20T04:39:27;19.84;49.17
60242;SHT30;46103;52.076;113.488;2023-08-20T04:42:34;20.03;48.51
60242;SHT30;46103;52.076;113.488;2023-08-20T04:45:41;20.03;47.99
60242;SHT30;46103;52.076;113.488;2023-08-20T04:48:49;19.84;48.25
60242;SHT30;46103;52.076;113.488;2023-08-20T04:51:54;19.80;48.38
60242;SHT30;46103;52.076;113.488;2023-08-20T04:55:01;19.67;48.19
60242;SHT30;46103;52.076;113.488;2023-08-20T04:58:07;19.69;47.92
60242;SHT30;46103;52.076;113.488;2023-08-20T05:01:12;19.89;48.10
60242;SHT30;46103;52.076;113.488;2023-08-20T05:04:18;20.11;47.13
60242;SHT30;46103;52.076;113.488;2023-08-20T05:07:23;20.18;47.45
60242;SHT30;46103;52.076;113.488;2023-08-20T05:10:29;20.20;47.29
60242;SHT30;46103;52.076;113.488;2023-08-20T05:13:34;20.24;47.33
60242;SHT30;46103;52.076;113.488;2023-08-20T05:16:40;20.20;48.05
60242;SHT30;46103;52.076;113.488;2023-08-20T05:19:44;20.30;48.13
60242;SHT30;46103;52.076;113.488;2023-08-20T05:22:50;20.27;47.12
60242;SHT30;46103;52.076;113.488;2023-08-20T05:25:54;20.30;46.96
60242;SHT30;46103;52.076;113.488;2023-08-20T05:28:59;20.28;47.82
60242;SHT30;46103;52.076;113.488;2023-08-20T05:32:04;20.25;47.31
60242;SHT30;46103;52.076;113.488;2023-08-20T05:35:08;20.27;47.76
60242;SHT30;46103;52.076;113.488;2023-08-20T05:38:16;20.48;47.12
60242;SHT30;46103;52.076;113.488;2023-08-20T05:41:21;20.78;47.23
60242;SHT30;46103;52.076;113.488;2023-08-20T05:44:26;20.85;46.67
60242;SHT30;46103;52.076;113.488;2023-08-20T05:47:34;20.69;47.10
60242;SHT30;46103;52.076;113.488;2023-08-20T05:50:41;20.59;47.70
60242;SHT30;46103;52.076;113.488;2023-08-20T05:53:46;20.45;47.69
60242;SHT30;46103;52.076;113.488;2023-08-20T05:56:50;20.44;47.78
60242;SHT30;46103;52.076;113.488;2023-08-20T05:59:55;20.30;47.56
60242;SHT30;46103;52.076;113.488;2023-08-20T06:03:03;20.28;48.24
60242;SHT30;46103;52.076;113.488;2023-08-20T06:06:09;20.28;48.21
60242;SHT30;46103;52.076;113.488;2023-08-20T06:09:14;20.34;47.84
60242;SHT30;46103;52.076;113.488;2023-08-20T06:12:19;20.48;47.04
60242;SHT30;46103;52.076;113.488;2023-08-20T06:15:24;20.89;45.99
60242;SHT30;46103;52.076;113.488;2023-08-20T06:18:27;20.95;45.75
60242;SHT30;46103;52.076;113.488;2023-08-20T06:21:31;20.79;46.38
60242;SHT30;46103;52.076;113.488;2023-08-20T06:24:34;20.83;46.50
60242;SHT30;46103;52.076;113.488;2023-08-20T06:27:38;20.71;46.74
60242;SHT30;46103;52.076;113.488;2023-08-20T06:30:42;20.87;46.18
60242;SHT30;46103;52.076;113.488;2023-08-20T06:33:47;21.03;45.30
60242;SHT30;46103;52.076;113.488;2023-08-20T06:36:52;21.37;45.10
60242;SHT30;46103;52.076;113.488;2023-08-20T06:39:55;21.79;44.67
60242;SHT30;46103;52.076;113.488;2023-08-20T06:42:59;21.89;45.23
60242;SHT30;46103;52.076;113.488;2023-08-20T06:46:02;22.33;44.47
60242;SHT30;46103;52.076;113.488;2023-08-20T06:49:06;22.84;43.31
60242;SHT30;46103;52.076;113.488;2023-08-20T06:52:10;23.02;42.37
60242;SHT30;46103;52.076;113.488;2023-08-20T06:55:13;23.71;40.68
60242;SHT30;46103;52.076;113.488;2023-08-20T06:58:17;23.85;40.69
60242;SHT30;46103;52.076;113.488;2023-08-20T07:01:21;23.93;40.64
60242;SHT30;46103;52.076;113.488;2023-08-20T07:04:25;24.11;40.26
60242;SHT30;46103;52.076;113.488;2023-08-20T07:07:28;23.57;40.45
60242;SHT30;46103;52.076;113.488;2023-08-20T07:10:32;23.43;40.83
60242;SHT30;46103;52.076;113.488;2023-08-20T07:13:36;23.93;40.39
60242;SHT30;46103;52.076;113.488;2023-08-20T07:16:41;23.89;40.31
60242;SHT30;46103;52.076;113.488;2023-08-20T07:19:44;23.60;40.52
60242;SHT30;46103;52.076;113.488;2023-08-20T07:22:48;23.88;39.95
60242;SHT30;46103;52.076;113.488;2023-08-20T07:26:03;24.71;38.47
60242;SHT30;46103;52.076;113.488;2023-08-20T07:29:07;24.83;38.22
60242;SHT30;46103;52.076;113.488;2023-08-20T07:32:09;25.24;38.26
60242;SHT30;46103;52.076;113.488;2023-08-20T07:35:14;25.19;38.56
60242;SHT30;46103;52.076;113.488;2023-08-20T07:38:18;25.31;38.38
60242;SHT30;46103;52.076;113.488;2023-08-20T07:41:22;25.35;36.69
60242;SHT30;46103;52.076;113.488;2023-08-20T07:44:25;25.70;36.92
60242;SHT30;46103;52.076;113.488;2023-08-20T07:47:28;25.43;37.39
60242;SHT30;46103;52.076;113.488;2023-08-20T07:50:32;25.35;37.57
60242;SHT30;46103;52.076;113.488;2023-08-20T07:53:35;25.24;37.97
60242;SHT30;46103;52.076;113.488;2023-08-20T07:56:38;25.72;37.76
60242;SHT30;46103;52.076;113.488;2023-08-20T07:59:41;25.12;38.93
60242;SHT30;46103;52.076;113.488;2023-08-20T08:02:45;26.28;37.70
60242;SHT30;46103;52.076;113.488;2023-08-20T08:05:51;26.66;35.84
60242;SHT30;46103;52.076;113.488;2023-08-20T08:08:55;26.86;34.70
60242;SHT30;46103;52.076;113.488;2023-08-20T08:12:00;26.59;34.68
60242;SHT30;46103;52.076;113.488;2023-08-20T08:15:04;26.52;34.58
60242;SHT30;46103;52.076;113.488;2023-08-20T08:18:08;26.56;34.81
60242;SHT30;46103;52.076;113.488;2023-08-20T08:21:11;27.14;34.09
60242;SHT30;46103;52.076;113.488;2023-08-20T08:24:15;27.17;34.53
60242;SHT30;46103;52.076;113.488;2023-08-20T08:27:19;27.08;34.32
60242;SHT30;46103;52.076;113.488;2023-08-20T08:30:23;27.84;33.46
60242;SHT30;46103;52.076;113.488;2023-08-20T08:33:28;27.68;33.75
60242;SHT30;46103;52.076;113.488;2023-08-20T08:36:36;27.57;33.25
60242;SHT30;46103;52.076;113.488;2023-08-20T08:39:41;27.23;33.50
60242;SHT30;46103;52.076;113.488;2023-08-20T08:42:49;27.63;33.46
60242;SHT30;46103;52.076;113.488;2023-08-20T08:45:55;28.18;31.33
60242;SHT30;46103;52.076;113.488;2023-08-20T08:49:00;27.76;32.46
60242;SHT30;46103;52.076;113.488;2023-08-20T08:52:04;28.24;32.44
60242;SHT30;46103;52.076;113.488;2023-08-20T08:55:11;28.47;31.64
60242;SHT30;46103;52.076;113.488;2023-08-20T08:58:15;28.47;31.45
60242;SHT30;46103;52.076;113.488;2023-08-20T09:01:20;28.27;31.68
60242;SHT30;46103;52.076;113.488;2023-08-20T09:04:26;26.86;33.22
60242;SHT30;46103;52.076;113.488;2023-08-20T09:07:32;26.96;33.14
60242;SHT30;46103;52.076;113.488;2023-08-20T09:10:36;27.37;32.35
60242;SHT30;46103;52.076;113.488;2023-08-20T09:13:42;28.24;31.74
60242;SHT30;46103;52.076;113.488;2023-08-20T09:16:50;28.17;31.93
60242;SHT30;46103;52.076;113.488;2023-08-20T09:19:58;27.92;32.61
60242;SHT30;46103;52.076;113.488;2023-08-20T09:23:02;28.30;32.14
60242;SHT30;46103;52.076;113.488;2023-08-20T09:26:07;28.20;30.87
60242;SHT30;46103;52.076;113.488;2023-08-20T09:29:12;28.16;31.00
60242;SHT30;46103;52.076;113.488;2023-08-20T09:32:23;27.85;31.13
60242;SHT30;46103;52.076;113.488;2023-08-20T09:35:29;27.96;31.56
60242;SHT30;46103;52.076;113.488;2023-08-20T09:38:37;28.52;31.43
60242;SHT30;46103;52.076;113.488;2023-08-20T09:41:45;28.34;31.23
60242;SHT30;46103;52.076;113.488;2023-08-20T09:44:54;28.91;30.62
60242;SHT30;46103;52.076;113.488;2023-08-20T09:48:02;28.51;31.44
60242;SHT30;46103;52.076;113.488;2023-08-20T09:51:12;29.23;30.80
60242;SHT30;46103;52.076;113.488;2023-08-20T09:54:28;28.67;31.71
60242;SHT30;46103;52.076;113.488;2023-08-20T09:57:38;28.81;31.70
60242;SHT30;46103;52.076;113.488;2023-08-20T10:00:51;29.03;31.57
60242;SHT30;46103;52.076;113.488;2023-08-20T10:03:57;29.49;30.93
60242;SHT30;46103;52.076;113.488;2023-08-20T10:07:03;29.44;31.22
60242;SHT30;46103;52.076;113.488;2023-08-20T10:10:11;29.36;31.03
60242;SHT30;46103;52.076;113.488;2023-08-20T10:13:17;29.47;31.18
60242;SHT30;46103;52.076;113.488;2023-08-20T10:16:27;29.25;31.49
60242;SHT30;46103;52.076;113.488;2023-08-20T10:19:33;29.98;30.97
60242;SHT30;46103;52.076;113.488;2023-08-20T10:22:41;29.16;31.51
60242;SHT30;46103;52.076;113.488;2023-08-20T10:25:47;29.49;31.38
60242;SHT30;46103;52.076;113.488;2023-08-20T10:32:50;27.58;33.81
60242;SHT30;46103;52.076;113.488;2023-08-20T10:35:56;27.65;34.28
60242;SHT30;46103;52.076;113.488;2023-08-20T10:39:05;27.47;33.37
60242;SHT30;46103;52.076;113.488;2023-08-20T10:42:22;27.13;34.14
60242;SHT30;46103;52.076;113.488;2023-08-20T10:45:30;27.10;34.62
60242;SHT30;46103;52.076;113.488;2023-08-20T10:48:53;26.44;35.28
60242;SHT30;46103;52.076;113.488;2023-08-20T10:52:02;24.30;37.20
60242;SHT30;46103;52.076;113.488;2023-08-20T10:55:08;23.33;39.44
60242;SHT30;46103;52.076;113.488;2023-08-20T10:58:13;21.98;41.91
60242;SHT30;46103;52.076;113.488;2023-08-20T11:01:22;21.07;44.01
60242;SHT30;46103;52.076;113.488;2023-08-20T11:04:31;20.37;45.77
60242;SHT30;46103;52.076;113.488;2023-08-20T11:07:41;19.89;46.75
60242;SHT30;46103;52.076;113.488;2023-08-20T11:10:48;20.11;46.84
60242;SHT30;46103;52.076;113.488;2023-08-20T11:13:54;20.64;46.33
60242;SHT30;46103;52.076;113.488;2023-08-20T11:16:59;20.06;47.51
60242;SHT30;46103;52.076;113.488;2023-08-20T11:20:04;19.48;48.93
60242;SHT30;46103;52.076;113.488;2023-08-20T11:23:10;19.17;49.74
60242;SHT30;46103;52.076;113.488;2023-08-20T11:26:18;19.03;50.13
60242;SHT30;46103;52.076;113.488;2023-08-20T11:29:24;18.77;50.81
60242;SHT30;46103;52.076;113.488;2023-08-20T11:32:32;18.57;51.33
60242;SHT30;46103;52.076;113.488;2023-08-20T11:35:40;18.46;51.73
60242;SHT30;46103;52.076;113.488;2023-08-20T11:38:51;18.25;52.22
60242;SHT30;46103;52.076;113.488;2023-08-20T11:41:58;17.96;52.92
60242;SHT30;46103;52.076;113.488;2023-08-20T11:45:04;17.76;53.35
60242;SHT30;46103;52.076;113.488;2023-08-20T11:48:11;17.57;53.96
60242;SHT30;46103;52.076;113.488;2023-08-20T11:51:17;17.42;54.45
60242;SHT30;46103;52.076;113.488;2023-08-20T11:54:36;17.26;55.03
60242;SHT30;46103;52.076;113.488;2023-08-20T11:57:50;17.10;55.10
60242;SHT30;46103;52.076;113.488;2023-08-20T12:00:57;16.92;55.47
60242;SHT30;46103;52.076;113.488;2023-08-20T12:04:06;16.81;55.73
60242;SHT30;46103;52.076;113.488;2023-08-20T12:07:16;16.73;56.13
60242;SHT30;46103;52.076;113.488;2023-08-20T12:10:25;16.56;56.56
60242;SHT30;46103;52.076;113.488;2023-08-20T12:13:31;16.46;56.72
60242;SHT30;46103;52.076;113.488;2023-08-20T12:16:38;16.46;56.90
60242;SHT30;46103;52.076;113.488;2023-08-20T12:19:46;16.40;56.80
60242;SHT30;46103;52.076;113.488;2023-08-20T12:22:54;16.37;56.59
60242;SHT30;46103;52.076;113.488;2023-08-20T12:26:03;16.34;56.82
60242;SHT30;46103;52.076;113.488;2023-08-20T12:29:10;16.28;57.51
60242;SHT30;46103;52.076;113.488;2023-08-20T12:32:16;16.22;57.70
60242;SHT30;46103;52.076;113.488;2023-08-20T12:35:20;16.20;57.62
60242;SHT30;46103;52.076;113.488;2023-08-20T12:38:24;16.18;57.81
60242;SHT30;46103;52.076;113.488;2023-08-20T12:41:29;16.16;57.77
60242;SHT30;46103;52.076;113.488;2023-08-20T12:44:33;16.08;57.29
60242;SHT30;46103;52.076;113.488;2023-08-20T12:47:37;16.06;57.77
60242;SHT30;46103;52.076;113.488;2023-08-20T12:50:41;15.98;57.94
60242;SHT30;46103;52.076;113.488;2023-08-20T12:53:47;15.88;58.14
60242;SHT30;46103;52.076;113.488;2023-08-20T12:56:51;15.90;58.20
60242;SHT30;46103;52.076;113.488;2023-08-20T12:59:55;15.80;58.20
60242;SHT30;46103;52.076;113.488;2023-08-20T13:02:59;15.77;58.41
60242;SHT30;46103;52.076;113.488;2023-08-20T13:06:04;15.70;58.81
60242;SHT30;46103;52.076;113.488;2023-08-20T13:09:08;15.65;59.00
60242;SHT30;46103;52.076;113.488;2023-08-20T13:12:14;15.64;59.07
60242;SHT30;46103;52.076;113.488;2023-08-20T13:15:21;15.54;59.41
60242;SHT30;46103;52.076;113.488;2023-08-20T13:18:26;15.49;59.60
60242;SHT30;46103;52.076;113.488;2023-08-20T13:21:29;15.51;59.68
60242;SHT30;46103;52.076;113.488;2023-08-20T13:24:34;15.49;59.58
60242;SHT30;46103;52.076;113.488;2023-08-20T13:27:38;15.44;59.89
60242;SHT30;46103;52.076;113.488;2023-08-20T13:30:42;15.39;59.85
60242;SHT30;46103;52.076;113.488;2023-08-20T13:33:46;15.39;60.07
60242;SHT30;46103;52.076;113.488;2023-08-20T13:36:50;15.40;60.29
60242;SHT30;46103;52.076;113.488;2023-08-20T13:39:54;15.37;60.42
60242;SHT30;46103;52.076;113.488;2023-08-20T13:42:58;15.29;60.73
60242;SHT30;46103;52.076;113.488;2023-08-20T13:46:01;15.32;60.44
60242;SHT30;46103;52.076;113.488;2023-08-20T13:49:05;15.26;60.88
60242;SHT30;46103;52.076;113.488;2023-08-20T13:52:09;15.20;61.24
60242;SHT30;46103;52.076;113.488;2023-08-20T13:55:15;15.06;61.41
60242;SHT30;46103;52.076;113.488;2023-08-20T13:58:19;14.99;61.62
60242;SHT30;46103;52.076;113.488;2023-08-20T14:01:23;14.95;61.92
60242;SHT30;46103;52.076;113.488;2023-08-20T14:04:27;14.92;62.07
60242;SHT30;46103;52.076;113.488;2023-08-20T14:07:45;14.98;61.78
60242;SHT30;46103;52.076;113.488;2023-08-20T14:10:51;15.00;61.95
60242;SHT30;46103;52.076;113.488;2023-08-20T14:14:04;15.16;62.25
60242;SHT30;46103;52.076;113.488;2023-08-20T14:17:09;15.30;61.70
60242;SHT30;46103;52.076;113.488;2023-08-20T14:20:15;15.30;62.40
60242;SHT30;46103;52.076;113.488;2023-08-20T14:23:30;15.23;62.73
60242;SHT30;46103;52.076;113.488;2023-08-20T14:26:36;15.25;62.85
60242;SHT30;46103;52.076;113.488;2023-08-20T14:29:42;15.27;62.98
60242;SHT30;46103;52.076;113.488;2023-08-20T14:32:48;15.29;63.01
60242;SHT30;46103;52.076;113.488;2023-08-20T14:35:54;15.20;63.37
60242;SHT30;46103;52.076;113.488;2023-08-20T14:39:01;15.22;63.42
60242;SHT30;46103;52.076;113.488;2023-08-20T14:42:06;15.23;63.52
60242;SHT30;46103;52.076;113.488;2023-08-20T14:45:12;15.25;63.63
60242;SHT30;46103;52.076;113.488;2023-08-20T14:48:19;15.23;63.61
60242;SHT30;46103;52.076;113.488;2023-08-20T14:51:26;15.16;63.79
60242;SHT30;46103;52.076;113.488;2023-08-20T14:54:29;15.10;63.90
60242;SHT30;46103;52.076;113.488;2023-08-20T14:57:41;14.92;64.43
60242;SHT30;46103;52.076;113.488;2023-08-20T15:00:53;14.77;64.97
60242;SHT30;46103;52.076;113.488;2023-08-20T15:03:58;14.63;65.40
60242;SHT30;46103;52.076;113.488;2023-08-20T15:07:02;14.54;64.96
60242;SHT30;46103;52.076;113.488;2023-08-20T15:10:09;14.54;64.87
60242;SHT30;46103;52.076;113.488;2023-08-20T15:13:14;14.47;64.83
60242;SHT30;46103;52.076;113.488;2023-08-20T15:16:21;14.42;65.11
60242;SHT30;46103;52.076;113.488;2023-08-20T15:19:28;14.40;65.13
60242;SHT30;46103;52.076;113.488;2023-08-20T15:22:34;14.33;65.16
60242;SHT30;46103;52.076;113.488;2023-08-20T15:25:38;14.29;65.42
60242;SHT30;46103;52.076;113.488;2023-08-20T15:28:43;14.22;65.79
60242;SHT30;46103;52.076;113.488;2023-08-20T15:31:46;14.20;65.65
60242;SHT30;46103;52.076;113.488;2023-08-20T15:34:50;14.16;65.76
60242;SHT30;46103;52.076;113.488;2023-08-20T15:37:53;14.10;65.60
60242;SHT30;46103;52.076;113.488;2023-08-20T15:41:00;14.02;65.70
60242;SHT30;46103;52.076;113.488;2023-08-20T15:44:04;13.92;66.02
60242;SHT30;46103;52.076;113.488;2023-08-20T15:47:07;13.93;66.12
60242;SHT30;46103;52.076;113.488;2023-08-20T15:50:11;13.90;66.24
60242;SHT30;46103;52.076;113.488;2023-08-20T15:53:15;13.85;66.57
60242;SHT30;46103;52.076;113.488;2023-08-20T15:56:20;13.90;66.36
60242;SHT30;46103;52.076;113.488;2023-08-20T15:59:24;13.87;66.45
60242;SHT30;46103;52.076;113.488;2023-08-20T16:02:27;13.87;66.47
60242;SHT30;46103;52.076;113.488;2023-08-20T16:05:31;13.95;66.66
60242;SHT30;46103;52.076;113.488;2023-08-20T16:08:35;13.96;66.66
60242;SHT30;46103;52.076;113.488;2023-08-20T16:11:39;13.96;66.31
60242;SHT30;46103;52.076;113.488;2023-08-20T16:14:42;13.96;66.46
60242;SHT30;46103;52.076;113.488;2023-08-20T16:17:45;13.96;66.29
60242;SHT30;46103;52.076;113.488;2023-08-20T16:20:49;14.05;66.11
60242;SHT30;46103;52.076;113.488;2023-08-20T16:23:52;13.95;66.31
60242;SHT30;46103;52.076;113.488;2023-08-20T16:26:55;13.92;66.42
60242;SHT30;46103;52.076;113.488;2023-08-20T16:29:59;13.87;66.38
60242;SHT30;46103;52.076;113.488;2023-08-20T16:33:02;13.86;66.53
60242;SHT30;46103;52.076;113.488;2023-08-20T16:36:06;13.87;66.61
60242;SHT30;46103;52.076;113.488;2023-08-20T16:39:09;13.92;66.64
60242;SHT30;46103;52.076;113.488;2023-08-20T16:42:13;13.90;66.50
60242;SHT30;46103;52.076;113.488;2023-08-20T16:45:17;13.90;66.62
60242;SHT30;46103;52.076;113.488;2023-08-20T16:48:19;13.99;66.57
60242;SHT30;46103;52.076;113.488;2023-08-20T16:51:23;13.96;66.49
60242;SHT30;46103;52.076;113.488;2023-08-20T16:54:26;13.82;66.83
60242;SHT30;46103;52.076;113.488;2023-08-20T16:57:30;13.65;67.40
60242;SHT30;46103;52.076;113.488;2023-08-20T17:00:33;13.57;67.64
60242;SHT30;46103;52.076;113.488;2023-08-20T17:03:37;13.50;67.91
60242;SHT30;46103;52.076;113.488;2023-08-20T17:06:40;13.47;68.00
60242;SHT30;46103;52.076;113.488;2023-08-20T17:09:42;13.47;68.10
60242;SHT30;46103;52.076;113.488;2023-08-20T17:12:46;13.51;68.00
60242;SHT30;46103;52.076;113.488;2023-08-20T17:15:50;13.51;67.97
60242;SHT30;46103;52.076;113.488;2023-08-20T17:18:54;13.65;67.74
60242;SHT30;46103;52.076;113.488;2023-08-20T17:21:57;13.74;67.47
60242;SHT30;46103;52.076;113.488;2023-08-20T17:25:00;13.82;67.12
60242;SHT30;46103;52.076;113.488;2023-08-20T17:28:03;13.66;67.60
60242;SHT30;46103;52.076;113.488;2023-08-20T17:31:06;13.57;67.67
60242;SHT30;46103;52.076;113.488;2023-08-20T17:34:10;13.47;68.04
60242;SHT30;46103;52.076;113.488;2023-08-20T17:37:14;13.47;68.03
60242;SHT30;46103;52.076;113.488;2023-08-20T17:40:18;13.48;68.15
60242;SHT30;46103;52.076;113.488;2023-08-20T17:43:21;13.40;68.38
60242;SHT30;46103;52.076;113.488;2023-08-20T17:46:25;13.40;68.33
60242;SHT30;46103;52.076;113.488;2023-08-20T17:49:29;13.38;68.40
60242;SHT30;46103;52.076;113.488;2023-08-20T17:52:33;13.41;68.53
60242;SHT30;46103;52.076;113.488;2023-08-20T17:55:37;13.34;68.87
60242;SHT30;46103;52.076;113.488;2023-08-20T17:58:39;13.36;68.97
60242;SHT30;46103;52.076;113.488;2023-08-20T18:01:43;13.46;68.85
60242;SHT30;46103;52.076;113.488;2023-08-20T18:04:46;13.43;69.04
60242;SHT30;46103;52.076;113.488;2023-08-20T18:07:54;13.40;69.46
60242;SHT30;46103;52.076;113.488;2023-08-20T18:10:58;13.40;69.43
60242;SHT30;46103;52.076;113.488;2023-08-20T18:14:05;13.34;69.51
60242;SHT30;46103;52.076;113.488;2023-08-20T18:17:08;13.30;69.51
60242;SHT30;46103;52.076;113.488;2023-08-20T18:20:12;13.37;69.43
60242;SHT30;46103;52.076;113.488;2023-08-20T18:23:17;13.34;69.43
60242;SHT30;46103;52.076;113.488;2023-08-20T18:26:22;13.36;69.35
60242;SHT30;46103;52.076;113.488;2023-08-20T18:29:26;13.40;69.34
60242;SHT30;46103;52.076;113.488;2023-08-20T18:32:30;13.41;69.12
60242;SHT30;46103;52.076;113.488;2023-08-20T18:35:33;13.46;68.93
60242;SHT30;46103;52.076;113.488;2023-08-20T18:38:39;13.44;68.98
60242;SHT30;46103;52.076;113.488;2023-08-20T18:41:42;13.40;69.14
60242;SHT30;46103;52.076;113.488;2023-08-20T18:44:45;13.37;69.09
60242;SHT30;46103;52.076;113.488;2023-08-20T18:47:49;13.37;69.10
60242;SHT30;46103;52.076;113.488;2023-08-20T18:50:52;13.40;69.16
60242;SHT30;46103;52.076;113.488;2023-08-20T18:53:57;13.26;69.29
60242;SHT30;46103;52.076;113.488;2023-08-20T18:57:01;13.20;69.37
60242;SHT30;46103;52.076;113.488;2023-08-20T19:00:07;13.07;69.94
60242;SHT30;46103;52.076;113.488;2023-08-20T19:03:15;13.09;70.11